Aviation Digital Data Service (ADDS)

Output produced by METARs form (1212 UTC 26 March 2019)
found at http://www.aviationweather.gov/metar/data/
 
HKEL 261200Z 27008KT 9999 FEW024CB BKN025 24/14 Q1022
TAF HKEL 261100Z 2612/2712 35010KT 9999 FEW024CB BKN025 
     TEMPO 2612/2618 VRB15KT -TSRA FEW022CB BKN023 BKN080 
     BECMG 2620/2623 15005KT NSW CAVOK 
     TEMPO 2700/2706 9999 FEW018CB 
     BECMG 2708/2711 12015KT 9999 FEW024CB BKN025
       
HKJK 261200Z 04010KT 9999 FEW031CB SCT032 31/08 Q1018 NOSIG
TAF HKJK 261100Z 2612/2718 08015KT 9999 SCT030 
     BECMG 2620/2623 VRB05KT 9999 
     TEMPO 2700/2706 9999 FEW018 
     BECMG 2708/2711 06010KT FEW028 
     TEMPO 2712/2718 08015KT SCT030
       
HKKI 261100Z 23011KT 9999 FEW028CB BKN090 31/18 Q1015
TAF HKKI 261100Z 2612/2712 24015KT 9999 FEW029CB SCT100 
     TEMPO 2612/2618 VRB10KT -TSRA FEW023CB SCT024 BKN080 
     BECMG 2620/2623 VRB05KT NSW CAVOK 
     TEMPO 2700/2706 9999 FEW020CB 
     BECMG 2708/2711 22010KT 9999 FEW028CB SCT090
       
HKML 261100Z 10015KT 9999 FEW026 SCT270 31/24 Q1010
HKMO 261100Z 11010KT 9999 FEW027 33/23 Q1010 NOSIG
TAF HKMO 261100Z 2612/2718 12010KT 9999 FEW027 
     BECMG 2618/2621 09005KT FEW022 
     BECMG 2700/2706 00000KT FEW019 
     BECMG 2709/2712 12010KT FEW027
       
HKNW 261200Z 04010KT 9999 SCT033 31/15 Q1018
HKWJ 261100Z 11004KT 9999 SCT043 37/19 Q1008